Time;durP1;ratioP1;P1;durP2;ratioP2;P2;SDS_P1;SDS_P2;PMS_P1;PMS_P2;Temp;Humidity;BMP_temperature;BMP_pressure;BME280_temperature;BME280_humidity;BME280_pressure;Samples;Min_cycle;Max_cycle;Signal;HPM_P1;HPM_P2
2022/12/04 00:01:11;;;;;;;55.50;29.03;;;0.30;99.90;;;;;;5020022;28;20406;-63
2022/12/04 00:03:37;;;;;;;49.57;26.67;;;0.30;99.90;;;;;;5020032;28;20754;-65
2022/12/04 00:06:07;;;;;;;64.00;27.90;;;0.30;99.90;;;;;;5015608;28;20456;-65
2022/12/04 00:08:33;;;;;;;55.33;26.30;;;0.30;99.90;;;;;;5023849;28;21003;-65
2022/12/04 00:10:59;;;;;;;54.13;26.70;;;0.40;99.90;;;;;;5010591;28;20398;-64
2022/12/04 00:13:25;;;;;;;51.73;26.30;;;0.30;99.90;;;;;;5008862;28;20771;-64
2022/12/04 00:15:51;;;;;;;52.17;26.27;;;0.30;99.90;;;;;;5016088;28;20591;-65
2022/12/04 00:18:16;;;;;;;56.73;29.33;;;0.40;99.90;;;;;;5017791;28;20511;-65
2022/12/04 00:20:42;;;;;;;47.73;25.03;;;0.40;99.90;;;;;;5026880;28;20402;-63
2022/12/04 00:23:07;;;;;;;44.27;23.90;;;0.40;99.90;;;;;;5013994;28;20195;-65
2022/12/04 00:25:33;;;;;;;51.37;26.30;;;0.40;99.90;;;;;;5015713;28;20599;-65
2022/12/04 00:27:59;;;;;;;61.53;28.93;;;0.40;99.90;;;;;;5016629;28;20230;-64
2022/12/04 00:30:24;;;;;;;51.53;27.80;;;0.40;99.90;;;;;;5010661;28;20287;-65
2022/12/04 00:32:50;;;;;;;52.07;27.30;;;0.40;99.90;;;;;;5025992;28;20214;-64
2022/12/04 00:35:15;;;;;;;49.37;22.43;;;0.40;99.90;;;;;;5012702;28;20196;-64
2022/12/04 00:37:41;;;;;;;58.37;28.80;;;0.40;99.90;;;;;;5027216;28;20660;-65
2022/12/04 00:40:07;;;;;;;66.83;28.93;;;0.40;99.90;;;;;;5019636;28;20737;-64
2022/12/04 00:42:33;;;;;;;51.00;24.57;;;0.40;99.90;;;;;;5019405;28;20172;-65
2022/12/04 00:44:58;;;;;;;56.70;26.17;;;0.30;99.90;;;;;;5018402;28;20560;-64
2022/12/04 00:47:24;;;;;;;61.80;28.60;;;0.40;99.90;;;;;;5019984;28;20172;-64
2022/12/04 00:49:50;;;;;;;53.63;26.17;;;0.40;99.90;;;;;;5013177;28;20204;-64
2022/12/04 00:52:15;;;;;;;59.67;28.30;;;0.40;99.90;;;;;;5021417;28;20196;-65
2022/12/04 00:54:41;;;;;;;52.70;28.20;;;0.40;99.90;;;;;;5011909;28;20274;-64
2022/12/04 00:57:06;;;;;;;57.17;27.07;;;0.50;99.90;;;;;;5023305;28;20172;-64
2022/12/04 00:59:32;;;;;;;55.60;29.53;;;0.40;99.90;;;;;;5026358;28;20654;-64
2022/12/04 01:01:58;;;;;;;50.50;27.73;;;0.40;99.90;;;;;;5011570;28;20179;-65
2022/12/04 01:04:23;;;;;;;66.43;30.60;;;0.40;99.90;;;;;;5019472;28;20195;-65
2022/12/04 01:06:49;;;;;;;52.30;25.37;;;0.40;99.90;;;;;;5020461;28;20180;-65
2022/12/04 01:09:15;;;;;;;56.20;27.57;;;0.40;99.90;;;;;;5025601;28;20199;-64
2022/12/04 01:11:40;;;;;;;53.93;25.60;;;0.40;99.90;;;;;;5019841;28;20211;-64
2022/12/04 01:14:06;;;;;;;58.67;27.00;;;0.40;99.90;;;;;;5019320;28;20180;-64
2022/12/04 01:16:37;;;;;;;56.33;30.60;;;0.40;99.90;;;;;;5019116;28;20250;-64
2022/12/04 01:19:05;;;;;;;47.47;25.67;;;0.40;99.90;;;;;;5014661;28;20541;-66
2022/12/04 01:21:30;;;;;;;44.67;24.10;;;0.40;99.90;;;;;;5021884;28;20944;-65
2022/12/04 01:23:57;;;;;;;61.97;25.87;;;0.40;99.90;;;;;;5019160;28;20510;-65
2022/12/04 01:26:23;;;;;;;60.30;29.33;;;0.40;99.90;;;;;;5012387;28;20611;-64
2022/12/04 01:28:48;;;;;;;55.47;27.97;;;0.40;99.90;;;;;;5015125;28;20419;-63
2022/12/04 01:31:17;;;;;;;61.67;28.77;;;0.40;99.90;;;;;;5013827;28;20259;-65
2022/12/04 01:33:43;;;;;;;50.07;30.17;;;0.40;99.90;;;;;;5019614;28;20659;-66
2022/12/04 01:36:12;;;;;;;62.97;29.50;;;0.40;99.90;;;;;;5015230;28;20430;-65
2022/12/04 01:38:38;;;;;;;62.43;29.03;;;0.40;99.90;;;;;;5016765;28;20408;-64
2022/12/04 01:41:05;;;;;;;54.07;29.20;;;0.50;99.90;;;;;;5012643;28;20546;-65
2022/12/04 01:43:32;;;;;;;59.90;27.50;;;0.40;99.90;;;;;;5018253;28;20992;-65
2022/12/04 01:45:59;;;;;;;61.37;28.70;;;0.50;99.90;;;;;;5021550;28;20463;-64
2022/12/04 01:48:43;;;;;;;49.10;28.70;;;0.40;99.90;;;;;;5013744;28;20407;-65
2022/12/04 01:51:42;;;;;;;56.93;28.97;;;0.40;99.90;;;;;;5007008;28;20411;-65
2022/12/04 01:54:14;;;;;;;61.20;27.80;;;0.40;99.90;;;;;;5020806;28;20410;-65
2022/12/04 01:56:51;;;;;;;65.00;29.23;;;0.40;99.90;;;;;;5014107;28;20411;-66
2022/12/04 01:59:20;;;;;;;53.60;27.57;;;0.40;99.90;;;;;;5016885;28;20395;-64
2022/12/04 02:01:55;;;;;;;55.83;28.70;;;0.40;99.90;;;;;;5013958;28;20791;-64
2022/12/04 02:04:21;;;;;;;52.57;26.97;;;0.40;99.90;;;;;;5011157;28;20427;-64
2022/12/04 02:06:47;;;;;;;74.37;31.60;;;0.40;99.90;;;;;;5011799;28;21007;-65
2022/12/04 02:09:13;;;;;;;76.03;27.10;;;0.40;99.90;;;;;;5024633;28;20675;-66
2022/12/04 02:12:06;;;;;;;52.53;26.67;;;0.40;99.90;;;;;;5015847;28;20215;-65
2022/12/04 02:14:50;;;;;;;54.07;27.87;;;0.40;99.90;;;;;;5012211;28;20211;-65
2022/12/04 02:17:31;;;;;;;56.50;29.23;;;0.40;99.90;;;;;;5012594;28;21012;-64
2022/12/04 02:20:09;;;;;;;64.80;27.30;;;0.40;99.90;;;;;;5019841;28;20873;-65
2022/12/04 02:22:40;;;;;;;66.87;28.93;;;0.50;99.90;;;;;;5013879;28;20527;-66
2022/12/04 02:25:45;;;;;;;63.83;28.50;;;0.40;99.90;;;;;;5019592;28;20560;-65
2022/12/04 02:28:39;;;;;;;51.77;26.77;;;0.40;99.90;;;;;;4991280;28;20415;-64
2022/12/04 02:31:10;;;;;;;68.40;31.00;;;0.40;99.90;;;;;;5001999;28;20416;-65
2022/12/04 02:34:04;;;;;;;64.57;28.90;;;0.40;99.90;;;;;;5013002;28;20407;-65
2022/12/04 02:36:35;;;;;;;64.47;27.90;;;0.40;99.90;;;;;;5005939;28;20411;-65
2022/12/04 02:39:08;;;;;;;56.70;30.47;;;0.40;99.90;;;;;;5017776;28;20403;-65
2022/12/04 02:41:51;;;;;;;64.03;28.80;;;0.40;99.90;;;;;;5018015;28;21090;-65
2022/12/04 02:44:34;;;;;;;70.53;33.20;;;0.40;99.90;;;;;;5012991;28;20935;-65
2022/12/04 02:47:04;;;;;;;66.70;32.23;;;0.40;99.90;;;;;;5012609;28;20435;-65
2022/12/04 02:49:39;;;;;;;63.43;28.77;;;0.40;99.90;;;;;;5012295;28;20423;-67
2022/12/04 02:52:11;;;;;;;53.77;29.00;;;0.40;99.90;;;;;;5013878;28;20454;-65
2022/12/04 02:54:42;;;;;;;65.00;28.90;;;0.40;99.90;;;;;;5021136;28;20956;-64
2022/12/04 02:57:12;;;;;;;71.13;30.40;;;0.40;99.90;;;;;;5007149;28;20502;-65
2022/12/04 02:59:42;;;;;;;73.93;28.70;;;0.40;99.90;;;;;;5014938;28;20415;-65
2022/12/04 03:02:19;;;;;;;61.67;30.60;;;0.40;99.90;;;;;;5020058;28;20455;-65
2022/12/04 03:04:49;;;;;;;67.57;29.77;;;0.40;99.90;;;;;;5018510;28;20442;-64
2022/12/04 03:07:31;;;;;;;77.80;32.37;;;0.30;99.90;;;;;;5018061;28;20410;-64
2022/12/04 03:10:04;;;;;;;65.90;29.03;;;0.30;99.90;;;;;;5019979;28;20553;-65
2022/12/04 03:12:44;;;;;;;68.90;31.07;;;0.40;99.90;;;;;;5013780;28;20494;-65
2022/12/04 03:15:37;;;;;;;56.53;28.20;;;0.40;99.90;;;;;;5001060;28;20443;-65
2022/12/04 03:18:25;;;;;;;54.13;29.17;;;0.30;99.90;;;;;;5002563;28;20567;-64
2022/12/04 03:21:00;;;;;;;77.87;28.07;;;0.30;99.90;;;;;;5016198;28;20407;-65
2022/12/04 03:23:32;;;;;;;72.50;33.07;;;0.30;99.90;;;;;;5017407;28;20506;-64
2022/12/04 03:26:14;;;;;;;63.37;29.57;;;0.40;99.90;;;;;;5019681;28;20526;-65
2022/12/04 03:28:45;;;;;;;46.33;24.57;;;0.30;99.90;;;;;;5019528;28;20422;-65
2022/12/04 03:31:13;;;;;;;59.17;26.77;;;0.30;99.90;;;;;;5014761;28;20441;-65
2022/12/04 03:33:45;;;;;;;58.80;31.50;;;0.30;99.90;;;;;;5017341;28;20502;-64
2022/12/04 03:36:20;;;;;;;56.97;25.53;;;0.40;99.90;;;;;;5011241;28;20797;-66
2022/12/04 03:39:17;;;;;;;62.83;29.70;;;0.40;99.90;;;;;;5014978;28;20418;-66
2022/12/04 03:42:09;;;;;;;69.30;27.73;;;0.40;99.90;;;;;;5015472;28;20426;-67
2022/12/04 03:44:52;;;;;;;47.57;23.97;;;0.40;99.90;;;;;;5012002;28;20881;-65
2022/12/04 03:47:25;;;;;;;80.70;28.57;;;0.40;99.90;;;;;;5007745;28;20410;-65
2022/12/04 03:50:07;;;;;;;68.07;29.57;;;0.50;99.90;;;;;;5008308;28;20415;-65
2022/12/04 03:52:49;;;;;;;73.47;30.67;;;0.50;99.90;;;;;;5008343;28;20542;-65
2022/12/04 03:55:15;;;;;;;71.77;29.57;;;0.50;99.90;;;;;;5014492;28;20438;-65
2022/12/04 03:57:44;;;;;;;70.07;30.10;;;0.50;99.90;;;;;;5018340;28;20478;-64
2022/12/04 04:00:12;;;;;;;70.07;28.57;;;0.50;99.90;;;;;;5014795;28;20625;-65
2022/12/04 04:02:47;;;;;;;78.70;30.30;;;0.50;99.90;;;;;;5008305;28;20423;-65
2022/12/04 04:05:14;;;;;;;54.23;26.67;;;0.50;99.90;;;;;;5019006;28;20429;-64
2022/12/04 04:10:46;;;;;;;58.10;30.40;;;0.50;99.90;;;;;;5011307;28;20469;-66
2022/12/04 04:24:45;;;;;;;56.13;29.07;;;0.60;99.90;;;;;;5015426;28;20421;-65
2022/12/04 04:27:12;;;;;;;63.57;31.00;;;0.60;99.90;;;;;;5010594;28;20414;-64
2022/12/04 04:29:38;;;;;;;60.43;28.60;;;0.60;99.90;;;;;;5013079;28;20812;-65
2022/12/04 04:32:23;;;;;;;71.90;31.83;;;0.60;99.90;;;;;;5013014;28;20487;-64
2022/12/04 04:35:13;;;;;;;62.13;27.57;;;0.60;99.90;;;;;;5018262;28;20956;-65
2022/12/04 04:37:42;;;;;;;84.33;29.27;;;0.60;99.90;;;;;;5022063;28;20417;-65
2022/12/04 04:40:07;;;;;;;51.10;25.90;;;0.60;99.90;;;;;;5008791;28;20409;-65
2022/12/04 04:42:41;;;;;;;54.67;26.07;;;0.60;99.90;;;;;;5006513;28;20415;-65
2022/12/04 04:45:18;;;;;;;49.23;26.70;;;0.60;99.90;;;;;;5009934;28;20212;-65
2022/12/04 04:48:09;;;;;;;65.60;30.00;;;0.60;99.90;;;;;;5008473;28;20412;-65
2022/12/04 04:50:36;;;;;;;52.00;26.10;;;0.60;99.90;;;;;;5005777;28;20861;-64
2022/12/04 04:53:12;;;;;;;57.03;28.77;;;0.70;99.90;;;;;;5008051;28;20459;-65
2022/12/04 04:55:38;;;;;;;57.03;29.07;;;0.70;99.90;;;;;;5011099;28;21147;-65
2022/12/04 04:58:12;;;;;;;68.77;28.97;;;0.60;99.90;;;;;;5006958;28;20452;-64
2022/12/04 05:00:39;;;;;;;55.83;25.20;;;0.70;99.90;;;;;;5017744;28;20433;-65
2022/12/04 05:03:05;;;;;;;56.27;28.00;;;0.70;99.90;;;;;;5006956;28;20414;-65
2022/12/04 05:05:31;;;;;;;75.77;30.67;;;0.70;99.90;;;;;;5019992;28;20771;-65
2022/12/04 05:07:56;;;;;;;56.93;27.80;;;0.70;99.90;;;;;;5021308;28;20422;-65
2022/12/04 05:10:22;;;;;;;62.13;28.87;;;0.70;99.90;;;;;;5015704;28;20183;-66
2022/12/04 05:12:48;;;;;;;65.10;28.63;;;0.80;99.90;;;;;;4999300;28;20209;-65
2022/12/04 05:15:14;;;;;;;55.23;26.13;;;0.70;99.90;;;;;;5009700;28;20518;-66
2022/12/04 05:17:39;;;;;;;68.17;27.90;;;0.70;99.90;;;;;;5021660;28;20226;-65
2022/12/04 05:20:06;;;;;;;62.90;29.30;;;0.70;99.90;;;;;;4995824;28;20559;-64
2022/12/04 05:22:34;;;;;;;58.20;28.00;;;0.70;99.90;;;;;;5021971;28;20176;-65
2022/12/04 05:25:00;;;;;;;59.90;26.43;;;0.80;99.90;;;;;;5018304;28;20800;-65
2022/12/04 05:27:27;;;;;;;60.30;28.47;;;0.70;99.90;;;;;;5022112;28;20414;-66
2022/12/04 05:29:55;;;;;;;66.70;29.33;;;0.70;99.90;;;;;;5011960;28;21031;-65
2022/12/04 05:32:22;;;;;;;50.03;25.47;;;0.70;99.90;;;;;;5016092;28;20561;-65
2022/12/04 05:34:49;;;;;;;59.07;27.60;;;0.80;99.90;;;;;;5020869;28;20431;-65
2022/12/04 05:37:15;;;;;;;64.57;30.90;;;0.80;99.90;;;;;;5013836;28;20896;-65
2022/12/04 05:39:40;;;;;;;58.67;29.30;;;0.80;99.90;;;;;;5017360;28;20438;-65
2022/12/04 05:42:06;;;;;;;65.40;27.93;;;0.80;99.90;;;;;;5013250;28;20199;-65
2022/12/04 05:44:31;;;;;;;52.07;26.33;;;0.80;99.90;;;;;;5021501;28;20211;-65
2022/12/04 05:46:57;;;;;;;44.20;24.67;;;0.80;99.90;;;;;;5010913;28;20674;-66
2022/12/04 05:49:23;;;;;;;53.80;25.87;;;0.80;99.90;;;;;;5013923;28;20246;-66
2022/12/04 05:51:50;;;;;;;62.90;29.13;;;0.80;99.90;;;;;;5018289;28;20196;-66
2022/12/04 05:54:16;;;;;;;51.97;25.20;;;0.80;99.90;;;;;;5022306;28;20168;-67
2022/12/04 05:56:42;;;;;;;59.87;26.07;;;0.80;99.90;;;;;;5017506;28;20411;-64
2022/12/04 05:59:07;;;;;;;53.67;25.97;;;0.80;99.90;;;;;;5017657;28;20415;-65
2022/12/04 06:01:33;;;;;;;58.10;27.77;;;0.80;99.90;;;;;;5014237;28;20172;-65
2022/12/04 06:03:58;;;;;;;49.10;29.57;;;0.80;99.90;;;;;;5013179;28;20270;-65
2022/12/04 06:06:25;;;;;;;64.00;28.73;;;0.80;99.90;;;;;;5015133;28;20742;-65
2022/12/04 06:08:54;;;;;;;50.83;24.77;;;0.80;99.90;;;;;;5020288;28;20182;-64
2022/12/04 06:11:24;;;;;;;57.07;26.90;;;0.90;99.90;;;;;;5012683;28;20842;-66
2022/12/04 06:13:50;;;;;;;63.57;26.00;;;0.80;99.90;;;;;;5009857;28;20473;-65
2022/12/04 06:16:22;;;;;;;54.83;29.70;;;0.90;99.90;;;;;;5015461;28;20435;-64
2022/12/04 06:18:49;;;;;;;49.43;25.67;;;0.80;99.90;;;;;;5011450;28;20172;-65
2022/12/04 06:21:15;;;;;;;55.53;24.33;;;0.80;99.90;;;;;;5022338;28;20403;-65
2022/12/04 06:23:40;;;;;;;45.20;28.63;;;0.80;99.90;;;;;;5017894;28;20422;-65
2022/12/04 06:26:07;;;;;;;63.20;24.73;;;0.80;99.90;;;;;;5016270;28;20541;-66
2022/12/04 06:28:34;;;;;;;49.87;26.40;;;0.80;99.90;;;;;;5013669;28;20694;-65
2022/12/04 06:31:08;;;;;;;54.00;24.37;;;0.90;99.90;;;;;;5012226;28;20402;-65
2022/12/04 06:33:35;;;;;;;53.30;26.53;;;0.80;99.90;;;;;;5015518;28;20919;-65
2022/12/04 06:36:09;;;;;;;61.97;24.67;;;0.80;99.90;;;;;;5016752;28;20501;-65
2022/12/04 06:38:35;;;;;;;55.80;27.23;;;0.80;99.90;;;;;;4995974;28;20507;-64
2022/12/04 06:41:06;;;;;;;42.57;23.60;;;0.90;99.90;;;;;;5016935;28;20751;-64
2022/12/04 06:43:32;;;;;;;52.03;27.60;;;0.90;99.90;;;;;;5014100;28;20851;-64
2022/12/04 06:46:03;;;;;;;54.40;26.10;;;0.90;99.90;;;;;;5011038;28;20542;-64
2022/12/04 06:48:28;;;;;;;47.40;24.80;;;0.80;99.90;;;;;;5014781;28;20175;-66
2022/12/04 06:51:30;;;;;;;47.80;24.30;;;0.90;99.90;;;;;;5014452;28;20435;-65
2022/12/04 06:53:56;;;;;;;58.97;26.87;;;0.90;99.90;;;;;;4997019;28;20722;-66
2022/12/04 06:56:24;;;;;;;55.23;26.80;;;1.00;99.90;;;;;;5013208;28;20641;-66
2022/12/04 06:58:53;;;;;;;59.50;26.80;;;0.90;99.90;;;;;;5016206;28;20279;-66
2022/12/04 07:01:22;;;;;;;51.60;24.10;;;0.90;99.90;;;;;;5013863;28;20505;-65
2022/12/04 07:03:48;;;;;;;59.53;27.17;;;1.00;99.90;;;;;;5014818;28;20945;-65
2022/12/04 07:06:22;;;;;;;55.40;26.77;;;1.00;99.90;;;;;;5013260;28;20527;-64
2022/12/04 07:08:51;;;;;;;51.50;25.40;;;0.90;99.90;;;;;;5015776;28;20850;-65
2022/12/04 07:11:18;;;;;;;51.63;26.07;;;1.00;99.90;;;;;;5010980;28;20547;-66
2022/12/04 07:13:44;;;;;;;56.77;26.63;;;1.00;99.90;;;;;;5014276;28;20513;-65
2022/12/04 07:16:15;;;;;;;54.23;27.57;;;1.00;99.90;;;;;;5014518;28;20521;-66
2022/12/04 07:18:41;;;;;;;53.40;27.30;;;1.00;99.90;;;;;;5008978;28;20732;-65
2022/12/04 07:21:13;;;;;;;60.03;25.20;;;1.00;99.90;;;;;;5011469;28;20456;-66
2022/12/04 07:23:39;;;;;;;58.00;29.20;;;1.00;99.90;;;;;;5008714;28;20415;-64
2022/12/04 07:26:10;;;;;;;48.67;24.90;;;1.00;99.90;;;;;;5015185;28;20796;-65
2022/12/04 07:28:37;;;;;;;57.20;27.27;;;1.00;99.90;;;;;;5012500;28;20188;-65
2022/12/04 07:31:04;;;;;;;59.03;26.10;;;1.00;99.90;;;;;;5010965;28;20407;-65
2022/12/04 07:33:30;;;;;;;55.63;23.80;;;1.00;99.90;;;;;;5017279;28;20554;-65
2022/12/04 07:35:57;;;;;;;57.23;25.30;;;1.00;99.90;;;;;;5008200;28;20523;-67
2022/12/04 07:38:22;;;;;;;42.23;21.83;;;1.00;99.90;;;;;;5012715;28;20172;-66
2022/12/04 07:40:48;;;;;;;63.87;28.17;;;1.00;99.90;;;;;;5013610;28;20434;-65
2022/12/04 07:43:13;;;;;;;56.37;27.90;;;1.00;99.90;;;;;;5016258;28;20817;-65
2022/12/04 07:45:39;;;;;;;50.43;24.47;;;1.00;99.90;;;;;;5010000;28;20223;-65
2022/12/04 07:48:04;;;;;;;49.77;25.10;;;1.00;99.90;;;;;;5024049;28;20322;-64
2022/12/04 07:50:30;;;;;;;58.33;25.53;;;1.10;99.90;;;;;;5014292;28;20184;-66
2022/12/04 07:52:55;;;;;;;52.57;24.30;;;1.10;99.90;;;;;;5015892;28;20291;-65
2022/12/04 07:55:21;;;;;;;46.90;23.67;;;1.10;99.90;;;;;;5015905;28;20192;-66
2022/12/04 07:57:47;;;;;;;44.27;25.80;;;1.10;99.90;;;;;;5009688;28;20192;-66
2022/12/04 08:00:13;;;;;;;51.97;26.43;;;1.10;99.90;;;;;;5015217;28;20176;-67
2022/12/04 08:02:38;;;;;;;68.20;27.20;;;1.10;99.90;;;;;;5016282;28;20279;-65
2022/12/04 08:05:04;;;;;;;58.73;28.27;;;1.10;99.90;;;;;;5009122;28;21273;-65
2022/12/04 08:07:31;;;;;;;56.57;24.70;;;1.20;99.90;;;;;;5001882;28;20195;-69
2022/12/04 08:09:56;;;;;;;59.03;26.50;;;1.20;99.90;;;;;;5010995;28;20568;-66
2022/12/04 08:12:22;;;;;;;51.67;23.30;;;1.20;99.90;;;;;;5004347;28;20560;-64
2022/12/04 08:14:49;;;;;;;51.13;26.23;;;1.20;99.90;;;;;;5011689;28;20289;-66
2022/12/04 08:17:14;;;;;;;52.80;26.53;;;1.20;99.90;;;;;;5005741;28;20274;-66
2022/12/04 08:19:40;;;;;;;56.30;28.93;;;1.20;99.90;;;;;;5005075;28;20516;-65
2022/12/04 08:22:05;;;;;;;55.93;25.60;;;1.20;99.90;;;;;;5003710;28;20191;-65
2022/12/04 08:24:31;;;;;;;55.37;27.50;;;1.20;99.90;;;;;;5001601;28;20715;-64
2022/12/04 08:26:57;;;;;;;53.40;27.87;;;1.30;99.90;;;;;;5003021;28;20552;-66
2022/12/04 08:29:22;;;;;;;62.63;28.37;;;1.20;99.90;;;;;;5003170;28;20177;-64
2022/12/04 08:31:48;;;;;;;51.10;26.80;;;1.30;99.90;;;;;;5000539;28;20219;-65
2022/12/04 08:34:14;;;;;;;52.37;24.53;;;1.20;99.90;;;;;;5002877;28;20180;-65
2022/12/04 08:36:39;;;;;;;56.00;25.07;;;1.20;99.90;;;;;;5001395;28;20239;-67
2022/12/04 08:39:05;;;;;;;46.13;23.27;;;1.30;99.90;;;;;;5001070;28;20434;-66
2022/12/04 08:41:31;;;;;;;55.47;25.97;;;1.20;99.90;;;;;;5004175;28;20192;-66
2022/12/04 08:43:57;;;;;;;53.10;26.17;;;1.30;99.90;;;;;;5007128;28;20223;-68
2022/12/04 08:46:24;;;;;;;55.03;24.70;;;1.30;99.90;;;;;;5005011;28;20466;-65
2022/12/04 08:48:50;;;;;;;44.80;25.50;;;1.20;99.90;;;;;;5006548;28;20431;-66
2022/12/04 08:51:19;;;;;;;56.10;26.00;;;1.30;99.90;;;;;;5004384;28;20442;-65
2022/12/04 08:53:45;;;;;;;51.20;24.20;;;1.30;99.90;;;;;;5005964;28;20204;-66
2022/12/04 08:56:11;;;;;;;55.37;25.40;;;1.40;99.90;;;;;;5005953;28;20772;-65
2022/12/04 08:58:37;;;;;;;59.30;26.63;;;1.40;99.90;;;;;;5003417;28;20251;-64
2022/12/04 09:01:06;;;;;;;47.93;26.23;;;1.40;99.90;;;;;;5007011;28;20517;-66
2022/12/04 09:03:32;;;;;;;53.33;24.70;;;1.40;99.90;;;;;;5004542;28;20721;-65
2022/12/04 09:05:59;;;;;;;56.30;25.67;;;1.40;99.90;;;;;;5002854;28;20455;-63
2022/12/04 09:08:25;;;;;;;52.87;28.10;;;1.30;99.90;;;;;;5004652;28;20843;-65
2022/12/04 09:10:51;;;;;;;51.03;26.63;;;1.30;99.90;;;;;;5004614;28;20447;-65
2022/12/04 09:13:16;;;;;;;64.73;27.60;;;1.30;99.90;;;;;;5006668;28;20218;-66
2022/12/04 09:15:42;;;;;;;53.97;25.80;;;1.30;99.90;;;;;;5008043;28;20276;-64
2022/12/04 09:18:08;;;;;;;53.67;25.23;;;1.40;99.90;;;;;;5012411;28;20662;-64
2022/12/04 09:20:34;;;;;;;51.30;26.37;;;1.40;99.90;;;;;;5006802;28;20181;-65
2022/12/04 09:23:01;;;;;;;42.93;26.77;;;1.40;99.90;;;;;;5006823;28;20439;-65
2022/12/04 09:25:26;;;;;;;45.67;24.60;;;1.40;99.90;;;;;;5010317;28;20468;-67
2022/12/04 09:27:52;;;;;;;50.93;25.07;;;1.40;99.90;;;;;;5008153;28;20450;-66
2022/12/04 09:30:17;;;;;;;63.63;28.17;;;1.40;99.90;;;;;;5007553;28;20185;-65
2022/12/04 09:32:43;;;;;;;46.87;26.00;;;1.50;99.90;;;;;;5007629;28;20237;-67
2022/12/04 09:35:09;;;;;;;58.37;27.67;;;1.50;99.90;;;;;;5004046;28;20204;-66
2022/12/04 09:37:35;;;;;;;64.63;28.23;;;1.50;99.90;;;;;;5005394;28;20679;-65
2022/12/04 09:40:02;;;;;;;53.97;25.60;;;1.50;99.90;;;;;;5004639;28;20862;-65
2022/12/04 09:42:52;;;;;;;50.67;26.30;;;1.50;99.90;;;;;;5008216;28;20529;-64
2022/12/04 09:45:21;;;;;;;52.33;24.20;;;1.50;99.90;;;;;;5005604;28;20466;-65
2022/12/04 09:47:50;;;;;;;61.00;26.30;;;1.50;99.90;;;;;;5008236;28;20524;-64
2022/12/04 09:50:42;;;;;;;54.40;26.87;;;1.50;99.90;;;;;;5003869;28;20435;-65
2022/12/04 09:53:26;;;;;;;54.10;25.77;;;1.50;99.90;;;;;;5003225;28;20463;-65
2022/12/04 09:56:03;;;;;;;55.60;21.90;;;1.60;99.90;;;;;;5005804;28;20455;-66
2022/12/04 09:58:53;;;;;;;51.30;25.50;;;1.60;99.90;;;;;;5001033;28;20438;-65
2022/12/04 10:01:30;;;;;;;51.03;26.80;;;1.60;99.90;;;;;;5005010;28;20431;-65
2022/12/04 10:03:56;;;;;;;61.03;27.40;;;1.60;99.90;;;;;;5004799;28;20945;-65
2022/12/04 10:06:31;;;;;;;54.50;27.10;;;1.60;99.90;;;;;;5002852;28;20467;-66
2022/12/04 10:09:26;;;;;;;49.80;24.00;;;1.70;99.90;;;;;;5004801;28;20524;-65
2022/12/04 10:12:26;;;;;;;54.07;23.80;;;1.70;99.90;;;;;;5004956;28;20459;-65
2022/12/04 10:15:21;;;;;;;43.00;23.70;;;1.70;99.90;;;;;;5004086;28;20981;-65
2022/12/04 10:17:52;;;;;;;43.60;24.57;;;1.70;99.90;;;;;;4997887;28;20453;-65
2022/12/04 10:20:36;;;;;;;52.50;24.87;;;1.70;99.90;;;;;;5002582;28;20446;-65
2022/12/04 10:23:15;;;;;;;43.13;26.20;;;1.70;99.90;;;;;;5003667;28;20463;-65
2022/12/04 10:25:42;;;;;;;44.93;21.97;;;1.70;99.90;;;;;;5003414;28;20450;-65
2022/12/04 10:28:19;;;;;;;45.37;22.17;;;1.70;99.90;;;;;;5004618;28;20811;-66
2022/12/04 10:30:47;;;;;;;45.87;22.97;;;1.70;99.90;;;;;;5002932;28;20446;-65
2022/12/04 10:33:20;;;;;;;54.20;23.07;;;1.70;99.90;;;;;;4981065;28;20463;-66
2022/12/04 10:35:51;;;;;;;54.63;23.33;;;1.80;99.90;;;;;;5000013;28;20458;-65
2022/12/04 10:38:29;;;;;;;59.33;27.67;;;1.80;99.90;;;;;;5003347;28;20518;-65
2022/12/04 10:41:00;;;;;;;50.23;24.20;;;1.70;99.90;;;;;;5004859;28;20921;-65
2022/12/04 10:43:46;;;;;;;40.77;22.67;;;1.70;99.90;;;;;;5004388;28;20431;-65
2022/12/04 10:46:30;;;;;;;45.50;22.60;;;1.90;99.90;;;;;;5001703;28;20454;-65
2022/12/04 10:49:05;;;;;;;51.80;28.43;;;1.90;99.90;;;;;;5004106;28;20434;-66
2022/12/04 10:51:39;;;;;;;45.50;26.47;;;1.90;99.90;;;;;;5002705;28;20445;-65
2022/12/04 10:54:21;;;;;;;51.70;27.30;;;1.90;99.90;;;;;;5005627;28;20850;-66
2022/12/04 10:56:58;;;;;;;55.30;26.90;;;1.90;99.90;;;;;;5005973;28;20424;-65
2022/12/04 10:59:24;;;;;;;52.43;25.07;;;1.90;99.90;;;;;;5004990;28;20459;-66
2022/12/04 11:01:58;;;;;;;51.20;25.83;;;1.90;99.90;;;;;;4985676;28;20479;-65
2022/12/04 11:04:26;;;;;;;52.57;25.00;;;1.90;99.90;;;;;;5002049;28;20458;-66
2022/12/04 11:07:26;;;;;;;51.80;21.50;;;1.90;99.90;;;;;;5005216;28;20806;-71
2022/12/04 11:10:04;;;;;;;61.20;25.77;;;1.90;99.90;;;;;;4985268;28;21287;-66
2022/12/04 11:12:31;;;;;;;46.00;22.80;;;1.90;99.90;;;;;;5007419;28;20509;-65
2022/12/04 11:15:23;;;;;;;47.03;26.10;;;1.90;99.90;;;;;;5006048;28;20455;-66
2022/12/04 11:17:48;;;;;;;53.63;24.77;;;2.00;99.90;;;;;;5003908;28;21028;-66
2022/12/04 11:20:17;;;;;;;32.80;20.10;;;2.00;99.90;;;;;;5001642;28;20431;-65
2022/12/04 11:23:01;;;;;;;57.77;26.07;;;2.00;99.90;;;;;;5000748;28;20192;-66
2022/12/04 11:25:34;;;;;;;43.23;22.70;;;2.00;99.90;;;;;;5003907;28;20458;-66
2022/12/04 11:28:01;;;;;;;39.80;22.60;;;2.00;99.90;;;;;;5005977;28;20493;-66
2022/12/04 11:30:32;;;;;;;48.23;22.20;;;2.00;99.90;;;;;;5000549;28;20435;-66
2022/12/04 11:32:58;;;;;;;58.53;29.40;;;2.00;99.90;;;;;;5004623;28;20463;-65
2022/12/04 11:35:29;;;;;;;52.80;25.40;;;2.00;99.90;;;;;;5000651;28;20479;-65
2022/12/04 11:38:06;;;;;;;44.27;24.00;;;2.00;99.90;;;;;;5001958;28;20518;-66
2022/12/04 11:40:33;;;;;;;49.83;22.63;;;2.00;99.90;;;;;;5004752;28;21123;-66
2022/12/04 11:43:11;;;;;;;39.67;22.60;;;2.00;99.90;;;;;;5004414;28;20438;-65
2022/12/04 11:45:36;;;;;;;46.07;25.03;;;2.00;99.90;;;;;;5001988;28;20830;-66
2022/12/04 11:48:12;;;;;;;46.03;24.90;;;2.00;99.90;;;;;;5005640;28;20426;-66
2022/12/04 11:50:56;;;;;;;44.00;23.20;;;2.00;99.90;;;;;;5001828;28;20544;-65
2022/12/04 11:54:16;;;;;;;41.30;23.90;;;2.00;99.90;;;;;;5001881;28;20893;-65
2022/12/04 11:56:46;;;;;;;53.07;20.37;;;2.00;99.90;;;;;;4923692;29;20517;-65
2022/12/04 11:59:42;;;;;;;43.00;24.37;;;2.00;99.90;;;;;;4998119;28;20484;-65
2022/12/04 12:02:13;;;;;;;47.67;22.77;;;2.00;99.90;;;;;;5002335;28;20533;-66
2022/12/04 12:04:47;;;;;;;45.47;22.20;;;2.00;99.90;;;;;;5001520;28;20790;-71
2022/12/04 12:07:22;;;;;;;40.27;20.47;;;2.10;99.90;;;;;;4998548;28;20562;-66
2022/12/04 12:10:06;;;;;;;46.43;23.53;;;2.10;99.90;;;;;;5002412;28;20465;-66
2022/12/04 12:12:53;;;;;;;55.23;23.40;;;2.10;99.90;;;;;;5004079;28;20455;-65
2022/12/04 12:15:47;;;;;;;38.97;22.20;;;2.00;99.90;;;;;;5008902;28;20472;-65
2022/12/04 12:18:54;;;;;;;35.73;20.10;;;2.00;99.90;;;;;;5008862;28;20439;-66
2022/12/04 12:21:48;;;;;;;38.93;20.50;;;2.00;99.90;;;;;;5006418;28;20422;-69
2022/12/04 12:24:29;;;;;;;41.60;22.80;;;2.00;99.90;;;;;;4934966;28;20446;-64
2022/12/04 12:27:07;;;;;;;54.13;21.40;;;2.00;99.90;;;;;;5008719;28;20473;-65
2022/12/04 12:29:56;;;;;;;41.57;21.30;;;2.00;99.90;;;;;;5006933;28;20844;-65
2022/12/04 12:32:34;;;;;;;41.07;20.60;;;2.00;99.90;;;;;;5010600;28;20466;-65
2022/12/04 12:35:00;;;;;;;42.83;22.53;;;2.00;99.90;;;;;;5007895;28;20957;-67
2022/12/04 12:37:38;;;;;;;49.83;23.80;;;2.00;99.90;;;;;;5008601;28;20431;-65
2022/12/04 12:40:19;;;;;;;45.07;22.00;;;2.00;99.90;;;;;;5009834;28;20716;-66
2022/12/04 12:42:56;;;;;;;52.30;24.10;;;2.10;99.90;;;;;;4991141;28;20443;-66
2022/12/04 12:45:48;;;;;;;54.40;25.67;;;2.00;99.90;;;;;;5009718;28;20493;-65
2022/12/04 12:48:33;;;;;;;35.97;21.80;;;2.00;99.90;;;;;;5009737;28;20828;-66
2022/12/04 12:51:37;;;;;;;55.40;23.90;;;2.00;99.90;;;;;;5010095;28;20438;-65
2022/12/04 12:54:25;;;;;;;40.70;21.27;;;2.10;99.90;;;;;;5010556;28;20450;-66
2022/12/04 12:56:55;;;;;;;42.43;22.87;;;2.00;99.90;;;;;;4995346;28;20438;-67
2022/12/04 12:59:25;;;;;;;46.77;21.73;;;2.00;99.90;;;;;;5009606;28;20458;-67
2022/12/04 13:02:24;;;;;;;43.27;22.60;;;2.00;99.90;;;;;;5009316;28;20422;-66
2022/12/04 13:04:52;;;;;;;44.23;21.57;;;2.00;99.90;;;;;;5010111;28;20816;-66
2022/12/04 13:07:19;;;;;;;37.17;23.70;;;2.00;99.90;;;;;;5009709;28;20555;-66
2022/12/04 13:10:16;;;;;;;44.87;21.90;;;2.10;99.90;;;;;;5010229;28;20975;-65
2022/12/04 13:12:46;;;;;;;50.17;25.77;;;2.00;99.90;;;;;;5005703;28;20482;-67
2022/12/04 13:15:20;;;;;;;53.73;19.97;;;2.10;99.90;;;;;;5007321;28;20453;-65